• Join FlightAware (Why Join?)
  • Login
  • US Flag 
04:46AM EDT


 

Airport Tracker/Info


-or-


 

Live Flight TrackerFlight Track Log ✈ ANZ639 ✈ 24-Apr-2013 ✈ NZAA / AKL - NZQN

Flight Track Log - Related Links

Times and Time Zones

All times are in EDT time to prevent confusion due to time zone crossing. See the ANZ639 flight status page for this flight to view local times or setup timezone preferences in your user account.

Time Position Orientation Groundspeed Altitude Reporting Facility
EDT Latitude Longitude Course Direction KTS MPH feet Rate Location/Type
06:22PM -37.1212 174.7171 208° Southwest  Level Estimated
06:23PM -37.2104 174.6580 208° Southwest  Level Estimated
06:24PM -37.2997 174.5988 208° Southwest  Level Estimated
06:25PM -37.3889 174.5395 208° Southwest  Level Estimated
06:26PM -37.4781 174.4800 208° Southwest  Level Estimated
06:27PM -37.5672 174.4204 208° Southwest  Level Estimated
06:28PM -37.6563 174.3607 208° Southwest  Level Estimated
06:29PM -37.7454 174.3008 208° Southwest  Level Estimated
06:30PM -37.8458 174.2331 208° Southwest  Level Estimated
06:31PM -37.9461 174.1653 208° Southwest  Level Estimated
06:32PM -38.0463 174.0972 208° Southwest  Level Estimated
06:33PM -38.1466 174.0290 208° Southwest  Level Estimated
06:34PM -38.2467 173.9606 208° Southwest  Level Estimated
06:35PM -38.3469 173.8920 208° Southwest  Level Estimated
06:36PM -38.4470 173.8233 208° Southwest  Level Estimated
06:37PM -38.5471 173.7543 208° Southwest  Level Estimated
06:38PM -38.6471 173.6851 208° Southwest  Level Estimated
06:39PM -38.7471 173.6158 208° Southwest  Level Estimated
06:40PM -38.8470 173.5462 208° Southwest  Level Estimated
06:41PM -38.9469 173.4765 208° Southwest  Level Estimated
06:42PM -39.0468 173.4065 209° Southwest  Level Estimated
06:43PM -39.1466 173.3364 209° Southwest  Level Estimated
06:44PM -39.2464 173.2660 209° Southwest  Level Estimated
06:45PM -39.3461 173.1955 209° Southwest  Level Estimated
06:46PM -39.4458 173.1247 209° Southwest  Level Estimated
06:47PM -39.5455 173.0538 209° Southwest  Level Estimated
06:48PM -39.6451 172.9826 209° Southwest  Level Estimated
06:49PM -39.7446 172.9113 209° Southwest  Level Estimated
06:50PM -39.8441 172.8397 209° Southwest  Level Estimated
06:51PM -39.9436 172.7679 209° Southwest  Level Estimated
06:52PM -40.0430 172.6960 209° Southwest  Level Estimated
06:53PM -40.1424 172.6238 209° Southwest  Level Estimated
06:54PM -40.2418 172.5514 209° Southwest  Level Estimated
06:55PM -40.3410 172.4788 209° Southwest  Level Estimated
06:56PM -40.4403 172.4059 209° Southwest  Level Estimated
06:57PM -40.5395 172.3329 209° Southwest  Level Estimated
06:58PM -40.6387 172.2596 209° Southwest  Level Estimated
06:59PM -40.7378 172.1861 209° Southwest  Level Estimated
07:00PM -40.8368 172.1124 209° Southwest  Level Estimated
07:01PM -40.9358 172.0385 209° Southwest  Level Estimated
07:02PM -41.0348 171.9644 209° Southwest  Level Estimated
07:03PM -41.1337 171.8900 210° Southwest  Level Estimated
07:04PM -41.2326 171.8154 210° Southwest  Level Estimated
07:05PM -41.3314 171.7406 210° Southwest  Level Estimated
07:06PM -41.4302 171.6656 210° Southwest  Level Estimated
07:07PM -41.5289 171.5903 210° Southwest  Level Estimated
07:08PM -41.6276 171.5148 210° Southwest  Level Estimated
07:09PM -41.7263 171.4391 210° Southwest  Level Estimated
07:10PM -41.8248 171.3631 210° Southwest  Level Estimated
07:11PM -41.9234 171.2869 210° Southwest  Level Estimated
07:12PM -42.0219 171.2105 210° Southwest  Level Estimated
07:13PM -42.1203 171.1338 210° Southwest  Level Estimated
07:14PM -42.2187 171.0569 210° Southwest  Level Estimated
07:15PM -42.3170 170.9797 210° Southwest  Level Estimated
07:16PM -42.4152 170.9023 210° Southwest  Level Estimated
07:17PM -42.5135 170.8247 210° Southwest  Level Estimated
07:18PM -42.6038 170.7530 210° Southwest  Level Estimated
07:19PM -42.6941 170.6811 210° Southwest  Level Estimated
07:20PM -42.7844 170.6091 210° Southwest  Level Estimated
07:21PM -42.8746 170.5367 210° Southwest  Level Estimated
07:22PM -42.9648 170.4642 210° Southwest  Level Estimated
07:23PM -43.0550 170.3915 211° Southwest  Level Estimated
07:24PM -43.1451 170.3186 211° Southwest  Level Estimated
07:25PM -43.2351 170.2454 211° Southwest  Level Estimated
07:26PM -43.3251 170.1720 211° Southwest  Level Estimated
07:27PM -43.4150 170.0984 211° Southwest  Level Estimated
07:28PM -43.5049 170.0246 211° Southwest  Level Estimated
07:29PM -43.5948 169.9506 211° Southwest  Level Estimated
07:30PM -43.6846 169.8763 211° Southwest  Level Estimated
07:31PM -43.7743 169.8019 211° Southwest  Level Estimated
07:32PM -43.8641 169.7272 211° Southwest  Level Estimated
07:33PM -43.9537 169.6523 211° Southwest  Level Estimated
07:34PM -44.0433 169.5771 211° Southwest  Level Estimated
07:35PM -44.1329 169.5017 211° Southwest  Level Estimated
07:36PM -44.2224 169.4261 211° Southwest  Level Estimated
07:37PM -44.3119 169.3503 211° Southwest  Level Estimated
07:38PM -44.4013 169.2742 211° Southwest  Level Estimated
07:39PM -44.4906 169.1979 211° Southwest  Level Estimated
07:40PM -44.5799 169.1214 211° Southwest  Level Estimated
07:41PM -44.6692 169.0446 211° Southwest  Level Estimated
07:42PM -44.7584 168.9676 211° Southwest  Level Estimated
07:43PM -44.8475 168.8904 212° Southwest  Level Estimated
07:44PM -44.9366 168.8129 212° Southwest  Level Estimated
07:45PM -45.0211 168.7392 212° Southwest  Level Estimated
07:46PM -45.0211 168.7392 245° Southwest  Level Estimated
07:47PM -45.0211 168.7392 245° Southwest  Level Estimated
07:48PM -45.0211 168.7392 245° Southwest  Level Estimated
07:49PM -45.0211 168.7392 245° Southwest  Level Estimated
07:50PM -45.0211 168.7392 245° Southwest  Level Estimated
07:51PM -45.0211 168.7392 245° Southwest  Level Estimated
07:52PM -45.0211 168.7392 245° Southwest  Level Estimated
07:53PM -45.0211 168.7392 245° Southwest  Level Estimated
07:54PM -45.0211 168.7392 245° Southwest  Level Estimated
07:55PM -45.0211 168.7392 245° Southwest  Level Estimated
07:56PM -45.0211 168.7392 245° Southwest  Level Estimated
07:57PM -45.0211 168.7392 245° Southwest  Level Estimated
07:58PM -45.0211 168.7392 245° Southwest  Level Estimated
07:59PM -45.0211 168.7392 245° Southwest  Level Estimated
08:00PM -45.0211 168.7392 245° Southwest  Level Estimated
08:01PM -45.0211 168.7392 245° Southwest  Level Estimated
08:02PM -45.0211 168.7392 245° Southwest  Level Estimated
08:03PM -45.0211 168.7392 245° Southwest  Level Estimated
08:04PM -45.0211 168.7392 245° Southwest  Level Estimated
08:05PM -45.0211 168.7392 245° Southwest  Level Estimated
08:06PM -45.0211 168.7392 245° Southwest  Level Estimated
08:07PM -45.0211 168.7392 245° Southwest  Level Estimated